sensor_id;sensor_type;location;lat;lon;timestamp;P1;durP1;ratioP1;P2;durP2;ratioP2
24681;SDS011;12802;53.390;-2.328;2023-05-03T00:00:00;11.73;;;8.20;;
24681;SDS011;12802;53.390;-2.328;2023-05-03T00:02:26;16.85;;;9.23;;
24681;SDS011;12802;53.390;-2.328;2023-05-03T00:04:52;14.25;;;9.02;;
24681;SDS011;12802;53.390;-2.328;2023-05-03T00:07:18;14.90;;;9.70;;
24681;SDS011;12802;53.390;-2.328;2023-05-03T00:09:46;19.13;;;9.88;;
24681;SDS011;12802;53.390;-2.328;2023-05-03T00:12:14;15.40;;;9.07;;
24681;SDS011;12802;53.390;-2.328;2023-05-03T00:14:39;15.77;;;8.90;;
24681;SDS011;12802;53.390;-2.328;2023-05-03T00:17:05;14.82;;;9.35;;
24681;SDS011;12802;53.390;-2.328;2023-05-03T00:19:31;13.02;;;8.90;;
24681;SDS011;12802;53.390;-2.328;2023-05-03T00:21:58;11.90;;;8.57;;
24681;SDS011;12802;53.390;-2.328;2023-05-03T00:24:24;16.17;;;10.60;;
24681;SDS011;12802;53.390;-2.328;2023-05-03T00:26:50;15.35;;;10.02;;
24681;SDS011;12802;53.390;-2.328;2023-05-03T00:29:15;15.73;;;10.27;;
24681;SDS011;12802;53.390;-2.328;2023-05-03T00:31:43;20.20;;;11.70;;
24681;SDS011;12802;53.390;-2.328;2023-05-03T00:34:09;18.85;;;12.07;;
24681;SDS011;12802;53.390;-2.328;2023-05-03T00:36:34;18.60;;;12.15;;
24681;SDS011;12802;53.390;-2.328;2023-05-03T00:39:00;18.08;;;10.95;;
24681;SDS011;12802;53.390;-2.328;2023-05-03T00:41:26;19.63;;;10.88;;
24681;SDS011;12802;53.390;-2.328;2023-05-03T00:43:51;19.02;;;10.57;;
24681;SDS011;12802;53.390;-2.328;2023-05-03T00:46:17;28.10;;;10.63;;
24681;SDS011;12802;53.390;-2.328;2023-05-03T00:48:44;14.77;;;10.30;;
24681;SDS011;12802;53.390;-2.328;2023-05-03T00:51:12;17.30;;;10.07;;
24681;SDS011;12802;53.390;-2.328;2023-05-03T00:53:40;18.33;;;10.93;;
24681;SDS011;12802;53.390;-2.328;2023-05-03T00:56:09;19.05;;;11.80;;
24681;SDS011;12802;53.390;-2.328;2023-05-03T00:58:36;21.00;;;12.13;;
24681;SDS011;12802;53.390;-2.328;2023-05-03T01:01:04;19.15;;;11.63;;
24681;SDS011;12802;53.390;-2.328;2023-05-03T01:03:31;24.52;;;11.57;;
24681;SDS011;12802;53.390;-2.328;2023-05-03T01:06:14;18.95;;;11.60;;
24681;SDS011;12802;53.390;-2.328;2023-05-03T01:08:53;20.67;;;11.00;;
24681;SDS011;12802;53.390;-2.328;2023-05-03T01:11:30;19.35;;;10.43;;
24681;SDS011;12802;53.390;-2.328;2023-05-03T01:14:49;23.67;;;12.23;;
24681;SDS011;12802;53.390;-2.328;2023-05-03T01:17:05;19.30;;;10.85;;
24681;SDS011;12802;53.390;-2.328;2023-05-03T01:19:40;23.10;;;10.18;;
24681;SDS011;12802;53.390;-2.328;2023-05-03T01:24:50;16.77;;;11.02;;
24681;SDS011;12802;53.390;-2.328;2023-05-03T01:27:31;27.10;;;10.88;;
24681;SDS011;12802;53.390;-2.328;2023-05-03T01:29:57;15.18;;;9.30;;
24681;SDS011;12802;53.390;-2.328;2023-05-03T01:32:25;18.70;;;10.85;;
24681;SDS011;12802;53.390;-2.328;2023-05-03T01:35:06;17.95;;;10.80;;
24681;SDS011;12802;53.390;-2.328;2023-05-03T01:37:36;18.45;;;10.73;;
24681;SDS011;12802;53.390;-2.328;2023-05-03T01:40:03;21.25;;;9.65;;
24681;SDS011;12802;53.390;-2.328;2023-05-03T01:42:34;17.88;;;10.32;;
24681;SDS011;12802;53.390;-2.328;2023-05-03T01:45:02;13.53;;;9.70;;
24681;SDS011;12802;53.390;-2.328;2023-05-03T01:47:29;21.77;;;10.73;;
24681;SDS011;12802;53.390;-2.328;2023-05-03T01:49:55;23.48;;;12.05;;
24681;SDS011;12802;53.390;-2.328;2023-05-03T01:52:21;17.05;;;11.15;;
24681;SDS011;12802;53.390;-2.328;2023-05-03T01:54:47;19.83;;;10.93;;
24681;SDS011;12802;53.390;-2.328;2023-05-03T01:57:13;24.35;;;11.70;;
24681;SDS011;12802;53.390;-2.328;2023-05-03T01:59:40;16.17;;;10.50;;
24681;SDS011;12802;53.390;-2.328;2023-05-03T02:02:06;17.17;;;10.63;;
24681;SDS011;12802;53.390;-2.328;2023-05-03T02:04:31;14.63;;;9.75;;
24681;SDS011;12802;53.390;-2.328;2023-05-03T02:06:57;17.10;;;10.20;;
24681;SDS011;12802;53.390;-2.328;2023-05-03T02:09:23;14.70;;;10.88;;
24681;SDS011;12802;53.390;-2.328;2023-05-03T02:11:49;16.13;;;10.50;;
24681;SDS011;12802;53.390;-2.328;2023-05-03T02:14:15;16.20;;;11.35;;
24681;SDS011;12802;53.390;-2.328;2023-05-03T02:16:41;19.70;;;11.07;;
24681;SDS011;12802;53.390;-2.328;2023-05-03T02:19:07;20.13;;;10.57;;
24681;SDS011;12802;53.390;-2.328;2023-05-03T02:21:33;21.30;;;10.68;;
24681;SDS011;12802;53.390;-2.328;2023-05-03T02:24:00;19.55;;;10.35;;
24681;SDS011;12802;53.390;-2.328;2023-05-03T02:26:26;25.08;;;11.68;;
24681;SDS011;12802;53.390;-2.328;2023-05-03T02:28:52;17.58;;;10.63;;
24681;SDS011;12802;53.390;-2.328;2023-05-03T02:31:20;14.38;;;10.30;;
24681;SDS011;12802;53.390;-2.328;2023-05-03T02:33:45;15.55;;;10.02;;
24681;SDS011;12802;53.390;-2.328;2023-05-03T02:36:11;19.40;;;12.07;;
24681;SDS011;12802;53.390;-2.328;2023-05-03T02:38:37;17.80;;;10.95;;
24681;SDS011;12802;53.390;-2.328;2023-05-03T02:41:03;16.75;;;11.43;;
24681;SDS011;12802;53.390;-2.328;2023-05-03T02:43:29;16.10;;;10.50;;
24681;SDS011;12802;53.390;-2.328;2023-05-03T02:45:56;18.55;;;11.75;;
24681;SDS011;12802;53.390;-2.328;2023-05-03T02:48:22;21.65;;;11.65;;
24681;SDS011;12802;53.390;-2.328;2023-05-03T02:50:48;20.35;;;11.95;;
24681;SDS011;12802;53.390;-2.328;2023-05-03T02:53:14;20.92;;;11.77;;
24681;SDS011;12802;53.390;-2.328;2023-05-03T02:55:40;23.95;;;12.38;;
24681;SDS011;12802;53.390;-2.328;2023-05-03T02:58:06;12.88;;;10.48;;
24681;SDS011;12802;53.390;-2.328;2023-05-03T03:00:32;19.65;;;12.45;;
24681;SDS011;12802;53.390;-2.328;2023-05-03T03:02:58;20.38;;;12.18;;
24681;SDS011;12802;53.390;-2.328;2023-05-03T03:05:24;17.55;;;11.18;;
24681;SDS011;12802;53.390;-2.328;2023-05-03T03:07:50;24.15;;;11.90;;
24681;SDS011;12802;53.390;-2.328;2023-05-03T03:10:16;22.17;;;12.15;;
24681;SDS011;12802;53.390;-2.328;2023-05-03T03:12:42;24.65;;;11.80;;
24681;SDS011;12802;53.390;-2.328;2023-05-03T03:15:13;19.88;;;11.20;;
24681;SDS011;12802;53.390;-2.328;2023-05-03T03:17:39;20.63;;;12.13;;
24681;SDS011;12802;53.390;-2.328;2023-05-03T03:20:08;14.75;;;10.63;;
24681;SDS011;12802;53.390;-2.328;2023-05-03T03:22:36;16.25;;;11.00;;
24681;SDS011;12802;53.390;-2.328;2023-05-03T03:25:03;17.90;;;11.93;;
24681;SDS011;12802;53.390;-2.328;2023-05-03T03:27:29;18.45;;;11.60;;
24681;SDS011;12802;53.390;-2.328;2023-05-03T03:29:55;18.40;;;11.75;;
24681;SDS011;12802;53.390;-2.328;2023-05-03T03:32:21;21.27;;;11.38;;
24681;SDS011;12802;53.390;-2.328;2023-05-03T03:34:47;20.55;;;11.13;;
24681;SDS011;12802;53.390;-2.328;2023-05-03T03:37:13;14.05;;;10.48;;
24681;SDS011;12802;53.390;-2.328;2023-05-03T03:39:40;17.50;;;10.88;;
24681;SDS011;12802;53.390;-2.328;2023-05-03T03:42:06;15.57;;;10.77;;
24681;SDS011;12802;53.390;-2.328;2023-05-03T03:44:33;16.65;;;10.30;;
24681;SDS011;12802;53.390;-2.328;2023-05-03T03:46:59;14.43;;;10.95;;
24681;SDS011;12802;53.390;-2.328;2023-05-03T03:49:24;21.23;;;10.95;;
24681;SDS011;12802;53.390;-2.328;2023-05-03T03:51:50;19.88;;;11.90;;
24681;SDS011;12802;53.390;-2.328;2023-05-03T03:54:16;17.63;;;11.32;;
24681;SDS011;12802;53.390;-2.328;2023-05-03T03:56:46;18.67;;;10.85;;
24681;SDS011;12802;53.390;-2.328;2023-05-03T03:59:12;17.75;;;11.57;;
24681;SDS011;12802;53.390;-2.328;2023-05-03T04:01:37;14.95;;;11.20;;
24681;SDS011;12802;53.390;-2.328;2023-05-03T04:04:04;19.50;;;11.10;;
24681;SDS011;12802;53.390;-2.328;2023-05-03T04:06:30;16.95;;;10.75;;
24681;SDS011;12802;53.390;-2.328;2023-05-03T04:08:58;17.25;;;11.48;;
24681;SDS011;12802;53.390;-2.328;2023-05-03T04:11:24;22.13;;;12.18;;
24681;SDS011;12802;53.390;-2.328;2023-05-03T04:13:55;20.73;;;11.15;;
24681;SDS011;12802;53.390;-2.328;2023-05-03T04:16:21;17.85;;;11.75;;
24681;SDS011;12802;53.390;-2.328;2023-05-03T04:18:47;19.63;;;11.25;;
24681;SDS011;12802;53.390;-2.328;2023-05-03T04:21:13;16.80;;;10.57;;
24681;SDS011;12802;53.390;-2.328;2023-05-03T04:23:40;25.02;;;10.52;;
24681;SDS011;12802;53.390;-2.328;2023-05-03T04:26:08;19.58;;;10.57;;
24681;SDS011;12802;53.390;-2.328;2023-05-03T04:28:34;19.75;;;10.60;;
24681;SDS011;12802;53.390;-2.328;2023-05-03T04:31:00;15.90;;;10.45;;
24681;SDS011;12802;53.390;-2.328;2023-05-03T04:33:28;15.82;;;10.45;;
24681;SDS011;12802;53.390;-2.328;2023-05-03T04:36:00;12.90;;;10.20;;
24681;SDS011;12802;53.390;-2.328;2023-05-03T04:38:27;15.20;;;10.30;;
24681;SDS011;12802;53.390;-2.328;2023-05-03T04:40:55;19.27;;;10.00;;
24681;SDS011;12802;53.390;-2.328;2023-05-03T04:43:22;14.52;;;9.27;;
24681;SDS011;12802;53.390;-2.328;2023-05-03T04:45:50;15.18;;;9.20;;
24681;SDS011;12802;53.390;-2.328;2023-05-03T04:48:20;17.45;;;9.32;;
24681;SDS011;12802;53.390;-2.328;2023-05-03T04:50:46;20.20;;;9.60;;
24681;SDS011;12802;53.390;-2.328;2023-05-03T04:53:14;14.93;;;9.38;;
24681;SDS011;12802;53.390;-2.328;2023-05-03T04:55:42;16.38;;;8.88;;
24681;SDS011;12802;53.390;-2.328;2023-05-03T04:58:08;13.35;;;8.65;;
24681;SDS011;12802;53.390;-2.328;2023-05-03T05:00:35;10.85;;;8.55;;
24681;SDS011;12802;53.390;-2.328;2023-05-03T05:03:07;18.77;;;8.95;;
24681;SDS011;12802;53.390;-2.328;2023-05-03T05:05:33;18.00;;;9.68;;
24681;SDS011;12802;53.390;-2.328;2023-05-03T05:07:59;12.77;;;8.05;;
24681;SDS011;12802;53.390;-2.328;2023-05-03T05:10:31;17.65;;;8.75;;
24681;SDS011;12802;53.390;-2.328;2023-05-03T05:13:00;16.58;;;8.25;;
24681;SDS011;12802;53.390;-2.328;2023-05-03T05:15:26;10.88;;;7.03;;
24681;SDS011;12802;53.390;-2.328;2023-05-03T05:17:52;16.27;;;7.75;;
24681;SDS011;12802;53.390;-2.328;2023-05-03T05:20:18;12.55;;;6.55;;
24681;SDS011;12802;53.390;-2.328;2023-05-03T05:22:47;13.93;;;6.70;;
24681;SDS011;12802;53.390;-2.328;2023-05-03T05:25:13;11.73;;;5.93;;
24681;SDS011;12802;53.390;-2.328;2023-05-03T05:27:40;12.18;;;5.90;;
24681;SDS011;12802;53.390;-2.328;2023-05-03T05:30:06;11.02;;;6.82;;
24681;SDS011;12802;53.390;-2.328;2023-05-03T05:32:33;13.10;;;6.28;;
24681;SDS011;12802;53.390;-2.328;2023-05-03T05:34:59;10.38;;;5.93;;
24681;SDS011;12802;53.390;-2.328;2023-05-03T05:37:26;15.80;;;6.38;;
24681;SDS011;12802;53.390;-2.328;2023-05-03T05:39:55;14.07;;;5.80;;
24681;SDS011;12802;53.390;-2.328;2023-05-03T05:42:24;12.00;;;5.83;;
24681;SDS011;12802;53.390;-2.328;2023-05-03T05:44:50;10.02;;;5.07;;
24681;SDS011;12802;53.390;-2.328;2023-05-03T05:47:17;13.82;;;5.43;;
24681;SDS011;12802;53.390;-2.328;2023-05-03T05:49:45;14.05;;;6.25;;
24681;SDS011;12802;53.390;-2.328;2023-05-03T05:52:11;9.00;;;5.25;;
24681;SDS011;12802;53.390;-2.328;2023-05-03T05:54:38;12.00;;;5.13;;
24681;SDS011;12802;53.390;-2.328;2023-05-03T05:57:04;9.57;;;4.82;;
24681;SDS011;12802;53.390;-2.328;2023-05-03T05:59:29;8.85;;;4.63;;
24681;SDS011;12802;53.390;-2.328;2023-05-03T06:01:56;7.18;;;4.30;;
24681;SDS011;12802;53.390;-2.328;2023-05-03T06:04:24;9.25;;;5.00;;
24681;SDS011;12802;53.390;-2.328;2023-05-03T06:06:51;9.27;;;4.80;;
24681;SDS011;12802;53.390;-2.328;2023-05-03T06:09:16;11.65;;;5.40;;
24681;SDS011;12802;53.390;-2.328;2023-05-03T06:11:42;12.18;;;5.07;;
24681;SDS011;12802;53.390;-2.328;2023-05-03T06:14:08;13.18;;;4.30;;
24681;SDS011;12802;53.390;-2.328;2023-05-03T06:16:36;9.02;;;4.43;;
24681;SDS011;12802;53.390;-2.328;2023-05-03T06:19:02;9.15;;;4.65;;
24681;SDS011;12802;53.390;-2.328;2023-05-03T06:21:30;9.27;;;3.35;;
24681;SDS011;12802;53.390;-2.328;2023-05-03T06:23:56;8.98;;;4.05;;
24681;SDS011;12802;53.390;-2.328;2023-05-03T06:26:23;7.57;;;3.40;;
24681;SDS011;12802;53.390;-2.328;2023-05-03T06:28:49;13.07;;;3.60;;
24681;SDS011;12802;53.390;-2.328;2023-05-03T06:31:16;8.50;;;3.83;;
24681;SDS011;12802;53.390;-2.328;2023-05-03T06:33:42;6.93;;;3.30;;
24681;SDS011;12802;53.390;-2.328;2023-05-03T06:36:08;11.60;;;3.55;;
24681;SDS011;12802;53.390;-2.328;2023-05-03T06:38:35;7.30;;;3.63;;
24681;SDS011;12802;53.390;-2.328;2023-05-03T06:41:02;9.05;;;3.47;;
24681;SDS011;12802;53.390;-2.328;2023-05-03T06:43:28;6.75;;;3.20;;
24681;SDS011;12802;53.390;-2.328;2023-05-03T06:45:59;4.93;;;2.83;;
24681;SDS011;12802;53.390;-2.328;2023-05-03T06:48:25;5.05;;;3.25;;
24681;SDS011;12802;53.390;-2.328;2023-05-03T06:50:51;9.07;;;3.67;;
24681;SDS011;12802;53.390;-2.328;2023-05-03T06:53:18;10.02;;;3.72;;
24681;SDS011;12802;53.390;-2.328;2023-05-03T06:55:44;9.80;;;3.83;;
24681;SDS011;12802;53.390;-2.328;2023-05-03T06:58:10;9.68;;;4.40;;
24681;SDS011;12802;53.390;-2.328;2023-05-03T07:00:36;6.35;;;3.75;;
24681;SDS011;12802;53.390;-2.328;2023-05-03T07:03:05;6.90;;;4.10;;
24681;SDS011;12802;53.390;-2.328;2023-05-03T07:05:31;7.22;;;3.95;;
24681;SDS011;12802;53.390;-2.328;2023-05-03T07:07:57;7.18;;;4.13;;
24681;SDS011;12802;53.390;-2.328;2023-05-03T07:10:22;6.43;;;3.90;;
24681;SDS011;12802;53.390;-2.328;2023-05-03T07:12:49;11.88;;;4.07;;
24681;SDS011;12802;53.390;-2.328;2023-05-03T07:15:15;15.75;;;4.53;;
24681;SDS011;12802;53.390;-2.328;2023-05-03T07:17:41;9.80;;;4.00;;
24681;SDS011;12802;53.390;-2.328;2023-05-03T07:20:07;7.78;;;3.92;;
24681;SDS011;12802;53.390;-2.328;2023-05-03T07:22:32;6.57;;;3.50;;
24681;SDS011;12802;53.390;-2.328;2023-05-03T07:24:58;7.80;;;3.70;;
24681;SDS011;12802;53.390;-2.328;2023-05-03T07:27:24;8.55;;;3.65;;
24681;SDS011;12802;53.390;-2.328;2023-05-03T07:29:50;8.70;;;3.50;;
24681;SDS011;12802;53.390;-2.328;2023-05-03T07:32:18;4.75;;;2.72;;
24681;SDS011;12802;53.390;-2.328;2023-05-03T07:34:43;7.57;;;3.33;;
24681;SDS011;12802;53.390;-2.328;2023-05-03T07:37:09;9.43;;;2.88;;
24681;SDS011;12802;53.390;-2.328;2023-05-03T07:39:35;5.95;;;2.78;;
24681;SDS011;12802;53.390;-2.328;2023-05-03T07:42:01;7.28;;;3.13;;
24681;SDS011;12802;53.390;-2.328;2023-05-03T07:44:26;6.97;;;3.10;;
24681;SDS011;12802;53.390;-2.328;2023-05-03T07:46:52;5.65;;;3.20;;
24681;SDS011;12802;53.390;-2.328;2023-05-03T07:49:18;9.05;;;3.25;;
24681;SDS011;12802;53.390;-2.328;2023-05-03T07:51:43;8.38;;;3.35;;
24681;SDS011;12802;53.390;-2.328;2023-05-03T07:54:09;8.10;;;3.45;;
24681;SDS011;12802;53.390;-2.328;2023-05-03T07:56:35;5.68;;;3.30;;
24681;SDS011;12802;53.390;-2.328;2023-05-03T07:59:00;4.80;;;2.63;;
24681;SDS011;12802;53.390;-2.328;2023-05-03T08:01:26;8.90;;;3.28;;
24681;SDS011;12802;53.390;-2.328;2023-05-03T08:03:52;7.00;;;3.30;;
24681;SDS011;12802;53.390;-2.328;2023-05-03T08:06:18;8.95;;;3.70;;
24681;SDS011;12802;53.390;-2.328;2023-05-03T08:08:44;6.68;;;2.50;;
24681;SDS011;12802;53.390;-2.328;2023-05-03T08:11:10;5.95;;;2.63;;
24681;SDS011;12802;53.390;-2.328;2023-05-03T08:13:36;5.80;;;3.00;;
24681;SDS011;12802;53.390;-2.328;2023-05-03T08:16:02;5.82;;;3.17;;
24681;SDS011;12802;53.390;-2.328;2023-05-03T08:18:29;6.25;;;2.67;;
24681;SDS011;12802;53.390;-2.328;2023-05-03T08:20:55;6.03;;;2.92;;
24681;SDS011;12802;53.390;-2.328;2023-05-03T08:23:20;8.02;;;3.40;;
24681;SDS011;12802;53.390;-2.328;2023-05-03T08:25:46;11.10;;;3.38;;
24681;SDS011;12802;53.390;-2.328;2023-05-03T08:28:13;7.10;;;3.58;;
24681;SDS011;12802;53.390;-2.328;2023-05-03T08:30:39;8.20;;;2.85;;
24681;SDS011;12802;53.390;-2.328;2023-05-03T08:33:05;7.25;;;3.00;;
24681;SDS011;12802;53.390;-2.328;2023-05-03T08:35:34;7.60;;;3.20;;
24681;SDS011;12802;53.390;-2.328;2023-05-03T08:38:00;7.15;;;3.08;;
24681;SDS011;12802;53.390;-2.328;2023-05-03T08:40:26;7.82;;;3.05;;
24681;SDS011;12802;53.390;-2.328;2023-05-03T08:42:54;5.25;;;3.20;;
24681;SDS011;12802;53.390;-2.328;2023-05-03T08:45:22;7.45;;;3.00;;
24681;SDS011;12802;53.390;-2.328;2023-05-03T08:47:52;7.63;;;3.20;;
24681;SDS011;12802;53.390;-2.328;2023-05-03T08:50:19;10.02;;;3.13;;
24681;SDS011;12802;53.390;-2.328;2023-05-03T08:52:46;9.85;;;2.75;;
24681;SDS011;12802;53.390;-2.328;2023-05-03T08:55:11;5.85;;;2.80;;
24681;SDS011;12802;53.390;-2.328;2023-05-03T08:57:37;7.32;;;2.88;;
24681;SDS011;12802;53.390;-2.328;2023-05-03T09:00:04;6.18;;;3.20;;
24681;SDS011;12802;53.390;-2.328;2023-05-03T09:02:34;5.45;;;2.85;;
24681;SDS011;12802;53.390;-2.328;2023-05-03T09:05:03;6.00;;;2.55;;
24681;SDS011;12802;53.390;-2.328;2023-05-03T09:07:43;6.10;;;2.60;;
24681;SDS011;12802;53.390;-2.328;2023-05-03T09:10:25;5.43;;;2.47;;
24681;SDS011;12802;53.390;-2.328;2023-05-03T09:12:51;5.75;;;2.63;;
24681;SDS011;12802;53.390;-2.328;2023-05-03T09:15:27;4.63;;;2.38;;
24681;SDS011;12802;53.390;-2.328;2023-05-03T09:18:09;4.65;;;2.78;;
24681;SDS011;12802;53.390;-2.328;2023-05-03T09:20:36;6.38;;;2.60;;
24681;SDS011;12802;53.390;-2.328;2023-05-03T09:23:03;7.57;;;2.47;;
24681;SDS011;12802;53.390;-2.328;2023-05-03T09:25:43;4.22;;;2.47;;
24681;SDS011;12802;53.390;-2.328;2023-05-03T09:30:36;7.32;;;2.83;;
24681;SDS011;12802;53.390;-2.328;2023-05-03T09:33:02;7.13;;;2.55;;
24681;SDS011;12802;53.390;-2.328;2023-05-03T09:35:28;6.95;;;2.65;;
24681;SDS011;12802;53.390;-2.328;2023-05-03T09:37:56;4.68;;;2.78;;
24681;SDS011;12802;53.390;-2.328;2023-05-03T09:40:22;4.38;;;2.80;;
24681;SDS011;12802;53.390;-2.328;2023-05-03T09:43:07;6.15;;;3.38;;
24681;SDS011;12802;53.390;-2.328;2023-05-03T09:45:35;6.38;;;2.80;;
24681;SDS011;12802;53.390;-2.328;2023-05-03T09:48:03;7.75;;;3.35;;
24681;SDS011;12802;53.390;-2.328;2023-05-03T09:50:30;7.72;;;3.08;;
24681;SDS011;12802;53.390;-2.328;2023-05-03T09:53:01;8.30;;;2.63;;
24681;SDS011;12802;53.390;-2.328;2023-05-03T09:55:31;5.35;;;2.65;;
24681;SDS011;12802;53.390;-2.328;2023-05-03T09:57:57;5.00;;;2.78;;
24681;SDS011;12802;53.390;-2.328;2023-05-03T10:00:24;5.03;;;3.20;;
24681;SDS011;12802;53.390;-2.328;2023-05-03T10:02:51;5.35;;;2.75;;
24681;SDS011;12802;53.390;-2.328;2023-05-03T10:05:20;7.68;;;2.30;;
24681;SDS011;12802;53.390;-2.328;2023-05-03T10:07:48;4.15;;;2.17;;
24681;SDS011;12802;53.390;-2.328;2023-05-03T10:10:17;3.15;;;2.08;;
24681;SDS011;12802;53.390;-2.328;2023-05-03T10:12:43;4.82;;;1.92;;
24681;SDS011;12802;53.390;-2.328;2023-05-03T10:15:10;4.85;;;1.80;;
24681;SDS011;12802;53.390;-2.328;2023-05-03T10:17:39;3.40;;;1.40;;
24681;SDS011;12802;53.390;-2.328;2023-05-03T10:25:30;3.30;;;1.48;;
24681;SDS011;12802;53.390;-2.328;2023-05-03T10:28:08;2.45;;;1.38;;
24681;SDS011;12802;53.390;-2.328;2023-05-03T10:30:35;2.55;;;1.20;;
24681;SDS011;12802;53.390;-2.328;2023-05-03T10:35:41;3.75;;;1.60;;
24681;SDS011;12802;53.390;-2.328;2023-05-03T10:38:27;2.72;;;1.67;;
24681;SDS011;12802;53.390;-2.328;2023-05-03T10:40:54;3.75;;;1.67;;
24681;SDS011;12802;53.390;-2.328;2023-05-03T10:44:03;3.00;;;1.52;;
24681;SDS011;12802;53.390;-2.328;2023-05-03T10:46:30;3.58;;;1.48;;
24681;SDS011;12802;53.390;-2.328;2023-05-03T10:49:16;4.70;;;1.77;;
24681;SDS011;12802;53.390;-2.328;2023-05-03T10:51:43;2.72;;;1.35;;
24681;SDS011;12802;53.390;-2.328;2023-05-03T10:54:09;4.63;;;1.73;;
24681;SDS011;12802;53.390;-2.328;2023-05-03T10:56:49;5.68;;;1.73;;
24681;SDS011;12802;53.390;-2.328;2023-05-03T10:59:20;3.08;;;1.52;;
24681;SDS011;12802;53.390;-2.328;2023-05-03T11:01:47;5.28;;;1.40;;
24681;SDS011;12802;53.390;-2.328;2023-05-03T11:06:46;2.97;;;1.60;;
24681;SDS011;12802;53.390;-2.328;2023-05-03T11:09:15;6.85;;;1.80;;
24681;SDS011;12802;53.390;-2.328;2023-05-03T11:11:41;2.00;;;1.40;;
24681;SDS011;12802;53.390;-2.328;2023-05-03T11:14:07;3.78;;;1.45;;
24681;SDS011;12802;53.390;-2.328;2023-05-03T11:16:36;2.25;;;1.27;;
24681;SDS011;12802;53.390;-2.328;2023-05-03T11:19:11;4.90;;;1.60;;
24681;SDS011;12802;53.390;-2.328;2023-05-03T11:21:38;3.75;;;1.60;;
24681;SDS011;12802;53.390;-2.328;2023-05-03T11:24:04;3.30;;;1.58;;
24681;SDS011;12802;53.390;-2.328;2023-05-03T11:26:36;2.78;;;1.58;;
24681;SDS011;12802;53.390;-2.328;2023-05-03T11:29:02;5.43;;;1.77;;
24681;SDS011;12802;53.390;-2.328;2023-05-03T11:31:29;5.72;;;1.83;;
24681;SDS011;12802;53.390;-2.328;2023-05-03T11:33:55;5.18;;;2.20;;
24681;SDS011;12802;53.390;-2.328;2023-05-03T11:36:21;3.22;;;2.10;;
24681;SDS011;12802;53.390;-2.328;2023-05-03T11:38:47;3.17;;;2.03;;
24681;SDS011;12802;53.390;-2.328;2023-05-03T11:41:14;3.35;;;2.17;;
24681;SDS011;12802;53.390;-2.328;2023-05-03T11:43:43;4.30;;;2.20;;
24681;SDS011;12802;53.390;-2.328;2023-05-03T11:46:11;8.57;;;2.83;;
24681;SDS011;12802;53.390;-2.328;2023-05-03T11:48:39;5.55;;;2.50;;
24681;SDS011;12802;53.390;-2.328;2023-05-03T11:51:07;3.95;;;2.25;;
24681;SDS011;12802;53.390;-2.328;2023-05-03T11:53:36;5.38;;;3.10;;
24681;SDS011;12802;53.390;-2.328;2023-05-03T11:56:07;7.90;;;2.70;;
24681;SDS011;12802;53.390;-2.328;2023-05-03T11:58:58;5.93;;;2.50;;
24681;SDS011;12802;53.390;-2.328;2023-05-03T12:01:25;8.70;;;2.65;;
24681;SDS011;12802;53.390;-2.328;2023-05-03T12:03:53;3.88;;;2.30;;
24681;SDS011;12802;53.390;-2.328;2023-05-03T12:06:22;6.63;;;2.67;;
24681;SDS011;12802;53.390;-2.328;2023-05-03T12:08:49;3.05;;;2.10;;
24681;SDS011;12802;53.390;-2.328;2023-05-03T12:11:15;6.35;;;2.78;;
24681;SDS011;12802;53.390;-2.328;2023-05-03T12:13:41;3.90;;;2.13;;
24681;SDS011;12802;53.390;-2.328;2023-05-03T12:16:07;5.60;;;2.08;;
24681;SDS011;12802;53.390;-2.328;2023-05-03T12:18:55;3.92;;;2.45;;
24681;SDS011;12802;53.390;-2.328;2023-05-03T12:21:42;5.93;;;2.25;;
24681;SDS011;12802;53.390;-2.328;2023-05-03T12:24:16;8.40;;;2.45;;
24681;SDS011;12802;53.390;-2.328;2023-05-03T12:26:43;4.65;;;2.20;;
24681;SDS011;12802;53.390;-2.328;2023-05-03T12:29:10;7.47;;;1.77;;
24681;SDS011;12802;53.390;-2.328;2023-05-03T12:31:37;3.88;;;1.85;;
24681;SDS011;12802;53.390;-2.328;2023-05-03T12:34:03;3.45;;;1.95;;
24681;SDS011;12802;53.390;-2.328;2023-05-03T12:36:29;2.65;;;1.83;;
24681;SDS011;12802;53.390;-2.328;2023-05-03T12:38:56;5.88;;;1.92;;
24681;SDS011;12802;53.390;-2.328;2023-05-03T12:41:23;7.18;;;1.60;;
24681;SDS011;12802;53.390;-2.328;2023-05-03T12:43:52;4.15;;;1.67;;
24681;SDS011;12802;53.390;-2.328;2023-05-03T12:46:18;3.53;;;1.92;;
24681;SDS011;12802;53.390;-2.328;2023-05-03T12:48:44;4.68;;;1.83;;
24681;SDS011;12802;53.390;-2.328;2023-05-03T12:51:10;5.38;;;2.00;;
24681;SDS011;12802;53.390;-2.328;2023-05-03T12:53:36;3.83;;;1.80;;
24681;SDS011;12802;53.390;-2.328;2023-05-03T12:56:01;4.22;;;1.65;;
24681;SDS011;12802;53.390;-2.328;2023-05-03T12:58:27;4.80;;;2.13;;
24681;SDS011;12802;53.390;-2.328;2023-05-03T13:00:53;4.07;;;2.03;;
24681;SDS011;12802;53.390;-2.328;2023-05-03T13:03:18;3.90;;;1.98;;
24681;SDS011;12802;53.390;-2.328;2023-05-03T13:05:44;6.40;;;1.73;;
24681;SDS011;12802;53.390;-2.328;2023-05-03T13:08:11;5.28;;;1.98;;
24681;SDS011;12802;53.390;-2.328;2023-05-03T13:10:37;7.50;;;2.08;;
24681;SDS011;12802;53.390;-2.328;2023-05-03T13:13:04;4.25;;;1.77;;
24681;SDS011;12802;53.390;-2.328;2023-05-03T13:15:30;9.27;;;2.50;;
24681;SDS011;12802;53.390;-2.328;2023-05-03T13:17:59;4.35;;;1.98;;
24681;SDS011;12802;53.390;-2.328;2023-05-03T13:20:26;6.65;;;1.70;;
24681;SDS011;12802;53.390;-2.328;2023-05-03T13:22:52;3.83;;;1.40;;
24681;SDS011;12802;53.390;-2.328;2023-05-03T13:25:17;6.32;;;2.00;;
24681;SDS011;12802;53.390;-2.328;2023-05-03T13:27:43;6.10;;;2.22;;
24681;SDS011;12802;53.390;-2.328;2023-05-03T13:30:10;3.67;;;1.95;;
24681;SDS011;12802;53.390;-2.328;2023-05-03T13:32:38;5.18;;;2.08;;
24681;SDS011;12802;53.390;-2.328;2023-05-03T13:35:04;5.45;;;2.33;;
24681;SDS011;12802;53.390;-2.328;2023-05-03T13:37:31;4.78;;;2.15;;
24681;SDS011;12802;53.390;-2.328;2023-05-03T13:39:57;5.32;;;2.40;;
24681;SDS011;12802;53.390;-2.328;2023-05-03T13:42:23;3.53;;;2.10;;
24681;SDS011;12802;53.390;-2.328;2023-05-03T13:44:48;4.15;;;2.00;;
24681;SDS011;12802;53.390;-2.328;2023-05-03T13:47:15;5.28;;;2.08;;
24681;SDS011;12802;53.390;-2.328;2023-05-03T13:49:41;4.20;;;2.08;;
24681;SDS011;12802;53.390;-2.328;2023-05-03T13:52:06;3.60;;;1.90;;
24681;SDS011;12802;53.390;-2.328;2023-05-03T13:54:32;3.50;;;1.80;;
24681;SDS011;12802;53.390;-2.328;2023-05-03T13:56:58;4.70;;;1.80;;
24681;SDS011;12802;53.390;-2.328;2023-05-03T13:59:24;5.43;;;2.05;;
24681;SDS011;12802;53.390;-2.328;2023-05-03T14:01:49;4.18;;;2.00;;
24681;SDS011;12802;53.390;-2.328;2023-05-03T14:04:15;3.28;;;1.90;;
24681;SDS011;12802;53.390;-2.328;2023-05-03T14:06:41;3.92;;;2.53;;
24681;SDS011;12802;53.390;-2.328;2023-05-03T14:09:07;4.15;;;2.00;;
24681;SDS011;12802;53.390;-2.328;2023-05-03T14:11:33;6.82;;;1.98;;
24681;SDS011;12802;53.390;-2.328;2023-05-03T14:13:58;3.15;;;1.80;;
24681;SDS011;12802;53.390;-2.328;2023-05-03T14:16:25;4.07;;;2.17;;
24681;SDS011;12802;53.390;-2.328;2023-05-03T14:18:51;2.88;;;2.22;;
24681;SDS011;12802;53.390;-2.328;2023-05-03T14:21:18;4.38;;;2.30;;
24681;SDS011;12802;53.390;-2.328;2023-05-03T14:23:44;5.22;;;1.75;;
24681;SDS011;12802;53.390;-2.328;2023-05-03T14:26:11;2.60;;;1.30;;
24681;SDS011;12802;53.390;-2.328;2023-05-03T14:28:40;5.15;;;1.80;;
24681;SDS011;12802;53.390;-2.328;2023-05-03T14:31:06;3.70;;;2.00;;
24681;SDS011;12802;53.390;-2.328;2023-05-03T14:33:33;7.80;;;1.55;;
24681;SDS011;12802;53.390;-2.328;2023-05-03T14:35:59;2.35;;;1.20;;
24681;SDS011;12802;53.390;-2.328;2023-05-03T14:38:25;3.03;;;1.08;;
24681;SDS011;12802;53.390;-2.328;2023-05-03T14:40:50;6.53;;;1.67;;
24681;SDS011;12802;53.390;-2.328;2023-05-03T14:43:19;5.07;;;1.90;;